| Date | Time | Temp. (oF) | Dew Point (oF) | Rel. Hum. (%) | Press. (in.) | Wind Dir. | Wind Speed (mph) | Hourly Rainfall (in.) |
|
|---|---|---|---|---|---|---|---|---|---|
| 1 | 03/20 | 00:00 | 41 | 39 | 94 | 30.13 | E | 0 | 0.00 |
| 2 | 03/19 | 23:00 | 42 | 39 | 92 | 30.13 | SW | 0 | 0.00 |
| 3 | 03/19 | 22:00 | 43 | 39 | 89 | 30.13 | NNE | 3 | 0.00 |
| 4 | 03/19 | 21:00 | 45 | 41 | 86 | 30.12 | SSW | 4 | 0.00 |
| 5 | 03/19 | 20:00 | 45 | 40 | 83 | 30.10 | SSW | 0 | 0.00 |
| 6 | 03/19 | 19:00 | 47 | 40 | 79 | 30.08 | S | 2 | 0.00 |
| 7 | 03/19 | 18:00 | 49 | 41 | 75 | 30.07 | ESE | 3 | 0.00 |
| 8 | 03/19 | 17:00 | 48 | 40 | 76 | 30.08 | SSW | 2 | 0.00 |
| 9 | 03/19 | 16:00 | 48 | 41 | 79 | 30.07 | ENE | 4 | 0.00 |
| 10 | 03/19 | 15:00 | 46 | 40 | 81 | 30.08 | WNW | 6 | 0.00 |
| 11 | 03/19 | 14:00 | 45 | 40 | 84 | 30.08 | N | 7 | 0.00 |
| 12 | 03/19 | 13:00 | 45 | 42 | 90 | 30.10 | N | 4 | 0.01 |
| 13 | 03/19 | 12:00 | 44 | 41 | 91 | 30.10 | N | 4 | 0.04 |
| 14 | 03/19 | 11:00 | 44 | 42 | 95 | 30.11 | N | 5 | 0.04 |
| 15 | 03/19 | 10:00 | 44 | 42 | 93 | 30.08 | N | 8 | 0.03 |
| 16 | 03/19 | 09:00 | 49 | 43 | 82 | 30.05 | N | 3 | 0.00 |
| 17 | 03/19 | 08:00 | 46 | 42 | 88 | 30.02 | N | 4 | 0.00 |
| 18 | 03/19 | 07:00 | 44 | 41 | 91 | 30.00 | NW | 0 | 0.00 |
| 19 | 03/19 | 06:00 | 45 | 41 | 88 | 29.97 | NW | 0 | 0.00 |
| 20 | 03/19 | 05:00 | 46 | 42 | 88 | 29.96 | SE | 0 | 0.00 |
| 21 | 03/19 | 04:00 | 47 | 43 | 87 | 29.95 | NNE | 0 | 0.00 |
| 22 | 03/19 | 03:00 | 48 | 42 | 81 | 29.96 | SSE | 3 | 0.00 |
| 23 | 03/19 | 02:00 | 51 | 43 | 76 | 29.96 | SW | 3 | 0.00 |
| 24 | 03/19 | 01:00 | 52 | 43 | 74 | 29.98 | SW | 1 | 0.00 |